sensor_id;sensor_type;location;lat;lon;timestamp;pressure;altitude;pressure_sealevel;temperature;humidity
62418;BME280;48456;54.242;10.280;2023-06-10T00:00:04;101901.75;;;12.34;100.00
62418;BME280;48456;54.242;10.280;2023-06-10T00:02:32;101906.16;;;12.31;100.00
62418;BME280;48456;54.242;10.280;2023-06-10T00:04:59;101910.53;;;12.26;100.00
62418;BME280;48456;54.242;10.280;2023-06-10T00:07:25;101908.75;;;12.23;100.00
62418;BME280;48456;54.242;10.280;2023-06-10T00:09:52;101908.75;;;12.21;100.00
62418;BME280;48456;54.242;10.280;2023-06-10T00:12:18;101910.53;;;12.23;100.00
62418;BME280;48456;54.242;10.280;2023-06-10T00:14:46;101907.84;;;12.19;100.00
62418;BME280;48456;54.242;10.280;2023-06-10T00:17:14;101906.97;;;12.19;100.00
62418;BME280;48456;54.242;10.280;2023-06-10T00:19:41;101903.38;;;12.12;100.00
62418;BME280;48456;54.242;10.280;2023-06-10T00:22:08;101904.22;;;12.09;100.00
62418;BME280;48456;54.242;10.280;2023-06-10T00:24:37;101898.06;;;12.11;100.00
62418;BME280;48456;54.242;10.280;2023-06-10T00:27:04;101904.28;;;12.14;100.00
62418;BME280;48456;54.242;10.280;2023-06-10T00:29:31;101909.56;;;12.14;100.00
62418;BME280;48456;54.242;10.280;2023-06-10T00:31:58;101904.25;;;12.11;100.00
62418;BME280;48456;54.242;10.280;2023-06-10T00:34:24;101913.06;;;12.07;100.00
62418;BME280;48456;54.242;10.280;2023-06-10T00:36:51;101907.72;;;12.05;100.00
62418;BME280;48456;54.242;10.280;2023-06-10T00:39:17;101902.44;;;12.05;100.00
62418;BME280;48456;54.242;10.280;2023-06-10T00:41:44;101903.28;;;12.04;100.00
62418;BME280;48456;54.242;10.280;2023-06-10T00:44:10;101903.28;;;12.04;100.00
62418;BME280;48456;54.242;10.280;2023-06-10T00:46:37;101899.75;;;12.02;100.00
62418;BME280;48456;54.242;10.280;2023-06-10T00:49:03;101902.41;;;12.02;100.00
62418;BME280;48456;54.242;10.280;2023-06-10T00:51:30;101903.31;;;12.06;100.00
62418;BME280;48456;54.242;10.280;2023-06-10T00:53:56;101892.63;;;12.01;100.00
62418;BME280;48456;54.242;10.280;2023-06-10T00:56:23;101905.03;;;12.02;100.00
62418;BME280;48456;54.242;10.280;2023-06-10T00:58:49;101902.41;;;12.02;100.00
62418;BME280;48456;54.242;10.280;2023-06-10T01:01:16;101905.03;;;12.01;100.00
62418;BME280;48456;54.242;10.280;2023-06-10T01:03:44;101900.63;;;12.00;100.00
62418;BME280;48456;54.242;10.280;2023-06-10T01:06:14;101891.75;;;11.99;100.00
62418;BME280;48456;54.242;10.280;2023-06-10T01:08:46;101893.53;;;12.00;100.00
62418;BME280;48456;54.242;10.280;2023-06-10T01:11:21;101890.88;;;11.97;100.00
62418;BME280;48456;54.242;10.280;2023-06-10T01:13:50;101897.94;;;11.96;100.00
62418;BME280;48456;54.242;10.280;2023-06-10T01:16:18;101898.78;;;11.94;100.00
62418;BME280;48456;54.242;10.280;2023-06-10T01:18:45;101901.41;;;11.89;100.00
62418;BME280;48456;54.242;10.280;2023-06-10T01:21:13;101898.72;;;11.88;100.00
62418;BME280;48456;54.242;10.280;2023-06-10T01:23:39;101896.94;;;11.85;100.00
62418;BME280;48456;54.242;10.280;2023-06-10T01:26:08;101893.41;;;11.83;100.00
62418;BME280;48456;54.242;10.280;2023-06-10T01:28:40;101889.84;;;11.82;100.00
62418;BME280;48456;54.242;10.280;2023-06-10T01:34:03;101892.47;;;11.79;100.00
62418;BME280;48456;54.242;10.280;2023-06-10T01:36:33;101892.47;;;11.76;100.00
62418;BME280;48456;54.242;10.280;2023-06-10T01:39:00;101899.53;;;11.77;100.00
62418;BME280;48456;54.242;10.280;2023-06-10T01:41:27;101904.84;;;11.77;100.00
62418;BME280;48456;54.242;10.280;2023-06-10T01:43:55;101899.56;;;11.82;100.00
62418;BME280;48456;54.242;10.280;2023-06-10T01:46:21;101899.53;;;11.77;100.00
62418;BME280;48456;54.242;10.280;2023-06-10T01:48:48;101906.63;;;11.78;100.00
62418;BME280;48456;54.242;10.280;2023-06-10T01:51:14;101905.72;;;11.76;100.00
62418;BME280;48456;54.242;10.280;2023-06-10T01:53:41;101900.41;;;11.75;100.00
62418;BME280;48456;54.242;10.280;2023-06-10T01:56:07;101887.16;;;11.78;100.00
62418;BME280;48456;54.242;10.280;2023-06-10T01:58:34;101884.50;;;11.78;100.00
62418;BME280;48456;54.242;10.280;2023-06-10T02:01:00;101878.34;;;11.77;100.00
62418;BME280;48456;54.242;10.280;2023-06-10T02:03:26;101881.88;;;11.79;100.00
62418;BME280;48456;54.242;10.280;2023-06-10T02:05:53;101881.03;;;11.80;100.00
62418;BME280;48456;54.242;10.280;2023-06-10T02:08:20;101876.56;;;11.79;100.00
62418;BME280;48456;54.242;10.280;2023-06-10T02:10:46;101881.88;;;11.76;100.00
62418;BME280;48456;54.242;10.280;2023-06-10T02:13:13;101878.31;;;11.74;100.00
62418;BME280;48456;54.242;10.280;2023-06-10T02:15:39;101883.59;;;11.73;100.00
62418;BME280;48456;54.242;10.280;2023-06-10T02:18:05;101879.16;;;11.72;100.00
62418;BME280;48456;54.242;10.280;2023-06-10T02:20:32;101887.09;;;11.70;100.00
62418;BME280;48456;54.242;10.280;2023-06-10T02:22:58;101898.59;;;11.70;100.00
62418;BME280;48456;54.242;10.280;2023-06-10T02:25:25;101891.53;;;11.73;100.00
62418;BME280;48456;54.242;10.280;2023-06-10T02:27:51;101901.25;;;11.70;100.00
62418;BME280;48456;54.242;10.280;2023-06-10T02:30:17;101903.00;;;11.68;100.00
62418;BME280;48456;54.242;10.280;2023-06-10T02:32:45;101907.44;;;11.69;100.00
62418;BME280;48456;54.242;10.280;2023-06-10T02:35:14;101902.16;;;11.69;100.00
62418;BME280;48456;54.242;10.280;2023-06-10T02:37:41;101911.00;;;11.73;100.00
62418;BME280;48456;54.242;10.280;2023-06-10T02:40:08;101903.03;;;11.73;100.00
62418;BME280;48456;54.242;10.280;2023-06-10T02:42:34;101895.09;;;11.73;100.00
62418;BME280;48456;54.242;10.280;2023-06-10T02:45:01;101906.56;;;11.72;100.00
62418;BME280;48456;54.242;10.280;2023-06-10T02:47:28;101905.66;;;11.70;100.00
62418;BME280;48456;54.242;10.280;2023-06-10T02:49:54;101903.03;;;11.72;100.00
62418;BME280;48456;54.242;10.280;2023-06-10T02:52:20;101902.16;;;11.74;100.00
62418;BME280;48456;54.242;10.280;2023-06-10T02:54:47;101901.28;;;11.72;100.00
62418;BME280;48456;54.242;10.280;2023-06-10T02:57:13;101904.81;;;11.74;100.00
62418;BME280;48456;54.242;10.280;2023-06-10T02:59:40;101907.47;;;11.76;100.00
62418;BME280;48456;54.242;10.280;2023-06-10T03:02:07;101904.88;;;11.80;100.00
62418;BME280;48456;54.242;10.280;2023-06-10T03:04:33;101900.44;;;11.81;100.00
62418;BME280;48456;54.242;10.280;2023-06-10T03:07:00;101902.22;;;11.83;100.00
62418;BME280;48456;54.242;10.280;2023-06-10T03:09:29;101902.22;;;11.82;100.00
62418;BME280;48456;54.242;10.280;2023-06-10T03:11:56;101901.38;;;11.85;100.00
62418;BME280;48456;54.242;10.280;2023-06-10T03:14:24;101899.59;;;11.85;100.00
62418;BME280;48456;54.242;10.280;2023-06-10T03:16:51;101900.47;;;11.84;100.00
62418;BME280;48456;54.242;10.280;2023-06-10T03:19:17;101904.03;;;11.85;100.00
62418;BME280;48456;54.242;10.280;2023-06-10T03:24:40;101894.34;;;11.90;100.00
62418;BME280;48456;54.242;10.280;2023-06-10T03:27:07;101901.38;;;11.88;100.00
62418;BME280;48456;54.242;10.280;2023-06-10T03:29:33;101899.63;;;11.88;100.00
62418;BME280;48456;54.242;10.280;2023-06-10T03:32:00;101904.06;;;11.89;100.00
62418;BME280;48456;54.242;10.280;2023-06-10T03:34:26;101903.22;;;11.95;100.00
62418;BME280;48456;54.242;10.280;2023-06-10T03:36:53;101899.72;;;11.99;100.00
62418;BME280;48456;54.242;10.280;2023-06-10T03:39:19;101906.88;;;12.06;100.00
62418;BME280;48456;54.242;10.280;2023-06-10T03:41:46;101913.13;;;12.13;100.00
62418;BME280;48456;54.242;10.280;2023-06-10T03:44:12;101904.31;;;12.17;100.00
62418;BME280;48456;54.242;10.280;2023-06-10T03:46:38;101903.44;;;12.21;100.00
62418;BME280;48456;54.242;10.280;2023-06-10T03:49:05;101901.69;;;12.25;100.00
62418;BME280;48456;54.242;10.280;2023-06-10T03:51:31;101915.88;;;12.27;100.00
62418;BME280;48456;54.242;10.280;2023-06-10T03:53:58;101907.91;;;12.32;100.00
62418;BME280;48456;54.242;10.280;2023-06-10T03:56:24;101911.47;;;12.34;100.00
62418;BME280;48456;54.242;10.280;2023-06-10T03:58:52;101915.03;;;12.39;100.00
62418;BME280;48456;54.242;10.280;2023-06-10T04:01:18;101905.34;;;12.46;100.00
62418;BME280;48456;54.242;10.280;2023-06-10T04:03:47;101908.91;;;12.53;100.00
62418;BME280;48456;54.242;10.280;2023-06-10T04:06:15;101906.28;;;12.56;100.00
62418;BME280;48456;54.242;10.280;2023-06-10T04:08:41;101904.53;;;12.58;100.00
62418;BME280;48456;54.242;10.280;2023-06-10T04:11:09;101905.44;;;12.62;100.00
62418;BME280;48456;54.242;10.280;2023-06-10T04:13:35;101909.00;;;12.67;100.00
62418;BME280;48456;54.242;10.280;2023-06-10T04:16:03;101900.16;;;12.76;100.00
62418;BME280;48456;54.242;10.280;2023-06-10T04:18:29;101914.38;;;12.81;100.00
62418;BME280;48456;54.242;10.280;2023-06-10T04:20:56;101902.00;;;12.86;100.00
62418;BME280;48456;54.242;10.280;2023-06-10T04:23:23;101905.56;;;12.93;100.00
62418;BME280;48456;54.242;10.280;2023-06-10T04:25:49;101912.66;;;13.03;100.00
62418;BME280;48456;54.242;10.280;2023-06-10T04:28:16;101913.56;;;13.11;100.00
62418;BME280;48456;54.242;10.280;2023-06-10T04:30:42;101908.31;;;13.19;100.00
62418;BME280;48456;54.242;10.280;2023-06-10T04:33:08;101913.63;;;13.27;100.00
62418;BME280;48456;54.242;10.280;2023-06-10T04:35:36;101912.75;;;13.30;100.00
62418;BME280;48456;54.242;10.280;2023-06-10T04:38:02;101905.66;;;13.33;100.00
62418;BME280;48456;54.242;10.280;2023-06-10T04:40:29;101900.38;;;13.39;100.00
62418;BME280;48456;54.242;10.280;2023-06-10T04:42:56;101907.47;;;13.45;100.00
62418;BME280;48456;54.242;10.280;2023-06-10T04:45:22;101910.16;;;13.50;100.00
62418;BME280;48456;54.242;10.280;2023-06-10T04:47:48;101909.28;;;13.53;100.00
62418;BME280;48456;54.242;10.280;2023-06-10T04:50:15;101908.38;;;13.60;100.00
62418;BME280;48456;54.242;10.280;2023-06-10T04:52:42;101902.19;;;13.61;100.00
62418;BME280;48456;54.242;10.280;2023-06-10T04:55:08;101907.50;;;13.61;100.00
62418;BME280;48456;54.242;10.280;2023-06-10T04:57:35;101902.19;;;13.66;100.00
62418;BME280;48456;54.242;10.280;2023-06-10T05:00:02;101903.97;;;13.70;100.00
62418;BME280;48456;54.242;10.280;2023-06-10T05:02:31;101905.75;;;13.77;100.00
62418;BME280;48456;54.242;10.280;2023-06-10T05:04:58;101899.56;;;13.81;100.00
62418;BME280;48456;54.242;10.280;2023-06-10T05:07:24;101902.19;;;13.92;100.00
62418;BME280;48456;54.242;10.280;2023-06-10T05:09:51;101899.53;;;14.06;100.00
62418;BME280;48456;54.242;10.280;2023-06-10T05:12:18;101903.03;;;14.18;100.00
62418;BME280;48456;54.242;10.280;2023-06-10T05:14:44;101891.50;;;14.25;100.00
62418;BME280;48456;54.242;10.280;2023-06-10T05:17:11;101895.94;;;14.32;100.00
62418;BME280;48456;54.242;10.280;2023-06-10T05:19:39;101895.91;;;14.37;100.00
62418;BME280;48456;54.242;10.280;2023-06-10T05:22:05;101896.81;;;14.39;100.00
62418;BME280;48456;54.242;10.280;2023-06-10T05:24:32;101896.72;;;14.58;100.00
62418;BME280;48456;54.242;10.280;2023-06-10T05:26:58;101895.81;;;14.66;100.00
62418;BME280;48456;54.242;10.280;2023-06-10T05:29:24;101889.59;;;14.67;100.00
62418;BME280;48456;54.242;10.280;2023-06-10T05:31:51;101899.34;;;14.70;100.00
62418;BME280;48456;54.242;10.280;2023-06-10T05:34:18;101892.22;;;14.75;100.00
62418;BME280;48456;54.242;10.280;2023-06-10T05:36:44;101897.53;;;14.89;100.00
62418;BME280;48456;54.242;10.280;2023-06-10T05:39:11;101887.72;;;14.94;100.00
62418;BME280;48456;54.242;10.280;2023-06-10T05:41:37;101890.31;;;15.10;100.00
62418;BME280;48456;54.242;10.280;2023-06-10T05:44:04;101887.66;;;15.13;100.00
62418;BME280;48456;54.242;10.280;2023-06-10T05:46:30;101880.50;;;15.22;100.00
62418;BME280;48456;54.242;10.280;2023-06-10T05:48:57;101890.94;;;15.51;100.00
62418;BME280;48456;54.242;10.280;2023-06-10T05:51:23;101883.69;;;15.69;100.00
62418;BME280;48456;54.242;10.280;2023-06-10T05:53:50;101877.38;;;15.78;100.00
62418;BME280;48456;54.242;10.280;2023-06-10T05:56:17;101878.97;;;16.01;100.00
62418;BME280;48456;54.242;10.280;2023-06-10T05:58:43;101876.38;;;15.97;100.00
62418;BME280;48456;54.242;10.280;2023-06-10T06:01:10;101877.13;;;16.09;100.00
62418;BME280;48456;54.242;10.280;2023-06-10T06:03:36;101884.38;;;15.97;100.00
62418;BME280;48456;54.242;10.280;2023-06-10T06:06:03;101884.38;;;15.90;100.00
62418;BME280;48456;54.242;10.280;2023-06-10T06:08:30;101887.06;;;15.88;100.00
62418;BME280;48456;54.242;10.280;2023-06-10T06:10:56;101876.47;;;15.79;100.00
62418;BME280;48456;54.242;10.280;2023-06-10T06:13:23;101879.06;;;15.87;100.00
62418;BME280;48456;54.242;10.280;2023-06-10T06:15:49;101881.75;;;15.87;100.00
62418;BME280;48456;54.242;10.280;2023-06-10T06:18:16;101883.47;;;15.95;100.00
62418;BME280;48456;54.242;10.280;2023-06-10T06:20:42;101882.47;;;16.06;100.00
62418;BME280;48456;54.242;10.280;2023-06-10T06:23:09;101886.88;;;16.11;100.00
62418;BME280;48456;54.242;10.280;2023-06-10T06:25:36;101888.66;;;16.13;100.00
62418;BME280;48456;54.242;10.280;2023-06-10T06:28:09;101881.53;;;16.10;100.00
62418;BME280;48456;54.242;10.280;2023-06-10T06:30:36;101885.94;;;16.16;100.00
62418;BME280;48456;54.242;10.280;2023-06-10T06:33:02;101886.88;;;16.13;100.00
62418;BME280;48456;54.242;10.280;2023-06-10T06:35:35;101888.44;;;16.34;100.00
62418;BME280;48456;54.242;10.280;2023-06-10T06:38:01;101884.03;;;16.29;100.00
62418;BME280;48456;54.242;10.280;2023-06-10T06:40:28;101884.03;;;16.32;100.00
62418;BME280;48456;54.242;10.280;2023-06-10T06:42:54;101876.81;;;16.40;100.00
62418;BME280;48456;54.242;10.280;2023-06-10T06:45:20;101891.13;;;16.33;100.00
62418;BME280;48456;54.242;10.280;2023-06-10T06:47:47;101874.31;;;16.23;100.00
62418;BME280;48456;54.242;10.280;2023-06-10T06:50:14;101880.38;;;16.37;100.00
62418;BME280;48456;54.242;10.280;2023-06-10T06:52:40;101893.69;;;16.42;100.00
62418;BME280;48456;54.242;10.280;2023-06-10T06:55:07;101882.88;;;16.52;100.00
62418;BME280;48456;54.242;10.280;2023-06-10T06:57:34;101895.28;;;16.57;100.00
62418;BME280;48456;54.242;10.280;2023-06-10T07:00:00;101889.03;;;16.57;100.00
62418;BME280;48456;54.242;10.280;2023-06-10T07:02:27;101887.75;;;16.91;100.00
62418;BME280;48456;54.242;10.280;2023-06-10T07:04:53;101887.72;;;16.94;100.00
62418;BME280;48456;54.242;10.280;2023-06-10T07:07:22;101890.13;;;17.14;100.00
62418;BME280;48456;54.242;10.280;2023-06-10T07:09:48;101902.44;;;17.24;100.00
62418;BME280;48456;54.242;10.280;2023-06-10T07:12:15;101901.44;;;17.33;100.00
62418;BME280;48456;54.242;10.280;2023-06-10T07:14:41;101899.59;;;17.35;100.00
62418;BME280;48456;54.242;10.280;2023-06-10T07:17:08;101898.81;;;17.28;100.00
62418;BME280;48456;54.242;10.280;2023-06-10T07:19:34;101901.09;;;17.55;100.00
62418;BME280;48456;54.242;10.280;2023-06-10T07:22:02;101904.47;;;17.68;100.00
62418;BME280;48456;54.242;10.280;2023-06-10T07:24:28;101903.34;;;17.82;100.00
62418;BME280;48456;54.242;10.280;2023-06-10T07:26:55;101904.91;;;17.95;100.00
62418;BME280;48456;54.242;10.280;2023-06-10T07:29:21;101907.34;;;18.08;100.00
62418;BME280;48456;54.242;10.280;2023-06-10T07:31:48;101901.09;;;18.10;100.00
62418;BME280;48456;54.242;10.280;2023-06-10T07:34:14;101908.19;;;18.11;100.00
62418;BME280;48456;54.242;10.280;2023-06-10T07:36:41;101902.03;;;18.04;100.00
62418;BME280;48456;54.242;10.280;2023-06-10T07:39:09;101901.94;;;18.12;100.00
62418;BME280;48456;54.242;10.280;2023-06-10T07:41:38;101896.81;;;17.98;100.00
62418;BME280;48456;54.242;10.280;2023-06-10T07:44:05;101902.00;;;18.11;100.00
62418;BME280;48456;54.242;10.280;2023-06-10T07:46:32;101899.59;;;17.90;100.00
62418;BME280;48456;54.242;10.280;2023-06-10T07:48:59;101892.66;;;17.82;100.00
62418;BME280;48456;54.242;10.280;2023-06-10T07:51:26;101892.75;;;17.74;100.00
62418;BME280;48456;54.242;10.280;2023-06-10T07:53:52;101903.50;;;17.72;100.00
62418;BME280;48456;54.242;10.280;2023-06-10T07:56:19;101905.25;;;17.75;100.00
62418;BME280;48456;54.242;10.280;2023-06-10T07:58:48;101905.78;;;17.96;100.00
62418;BME280;48456;54.242;10.280;2023-06-10T08:01:15;101905.59;;;18.07;100.00
62418;BME280;48456;54.242;10.280;2023-06-10T08:03:44;101909.88;;;18.18;100.00
62418;BME280;48456;54.242;10.280;2023-06-10T08:06:11;101903.09;;;18.46;100.00
62418;BME280;48456;54.242;10.280;2023-06-10T08:08:38;101904.69;;;18.55;100.00
62418;BME280;48456;54.242;10.280;2023-06-10T08:11:12;101902.81;;;19.03;100.00
62418;BME280;48456;54.242;10.280;2023-06-10T08:13:38;101899.22;;;19.04;100.00
62418;BME280;48456;54.242;10.280;2023-06-10T08:16:06;101900.94;;;19.08;100.00
62418;BME280;48456;54.242;10.280;2023-06-10T08:18:33;101902.88;;;19.41;100.00
62418;BME280;48456;54.242;10.280;2023-06-10T08:21:00;101892.16;;;19.77;100.00
62418;BME280;48456;54.242;10.280;2023-06-10T08:23:26;101902.88;;;19.77;100.00
62418;BME280;48456;54.242;10.280;2023-06-10T08:25:53;101903.09;;;19.68;100.00
62418;BME280;48456;54.242;10.280;2023-06-10T08:28:19;101888.25;;;19.53;100.00
62418;BME280;48456;54.242;10.280;2023-06-10T08:30:46;101895.84;;;19.73;100.00
62418;BME280;48456;54.242;10.280;2023-06-10T08:33:12;101905.94;;;19.61;100.00
62418;BME280;48456;54.242;10.280;2023-06-10T08:35:39;101893.16;;;19.73;100.00
62418;BME280;48456;54.242;10.280;2023-06-10T08:38:05;101893.41;;;19.98;100.00
62418;BME280;48456;54.242;10.280;2023-06-10T08:40:32;101900.34;;;19.71;100.00
62418;BME280;48456;54.242;10.280;2023-06-10T08:45:26;101892.56;;;19.60;100.00
62418;BME280;48456;54.242;10.280;2023-06-10T08:47:55;101894.59;;;19.86;100.00
62418;BME280;48456;54.242;10.280;2023-06-10T08:50:24;101892.22;;;19.74;100.00
62418;BME280;48456;54.242;10.280;2023-06-10T08:52:53;101900.03;;;19.47;100.00
62418;BME280;48456;54.242;10.280;2023-06-10T08:55:33;101896.53;;;19.43;100.00
62418;BME280;48456;54.242;10.280;2023-06-10T08:58:00;101898.41;;;19.40;100.00
62418;BME280;48456;54.242;10.280;2023-06-10T09:00:27;101898.28;;;19.06;100.00
62418;BME280;48456;54.242;10.280;2023-06-10T09:02:55;101893.88;;;19.02;100.00
62418;BME280;48456;54.242;10.280;2023-06-10T09:05:22;101892.03;;;19.45;100.00
62418;BME280;48456;54.242;10.280;2023-06-10T09:07:48;101893.50;;;19.59;100.00
62418;BME280;48456;54.242;10.280;2023-06-10T09:10:15;101879.59;;;19.78;100.00
62418;BME280;48456;54.242;10.280;2023-06-10T09:12:42;101884.38;;;20.01;100.00
62418;BME280;48456;54.242;10.280;2023-06-10T09:15:08;101886.78;;;20.12;100.00
62418;BME280;48456;54.242;10.280;2023-06-10T09:17:35;101892.75;;;20.23;100.00
62418;BME280;48456;54.242;10.280;2023-06-10T09:20:07;101886.50;;;20.21;100.00
62418;BME280;48456;54.242;10.280;2023-06-10T09:22:36;101890.09;;;20.22;100.00
62418;BME280;48456;54.242;10.280;2023-06-10T09:25:03;101898.44;;;20.44;100.00
62418;BME280;48456;54.242;10.280;2023-06-10T09:27:31;101894.53;;;20.86;100.00
62418;BME280;48456;54.242;10.280;2023-06-10T09:29:59;101894.47;;;20.89;100.00
62418;BME280;48456;54.242;10.280;2023-06-10T09:32:26;101894.09;;;21.02;100.00
62418;BME280;48456;54.242;10.280;2023-06-10T09:34:52;101894.03;;;21.32;100.00
62418;BME280;48456;54.242;10.280;2023-06-10T09:37:19;101895.88;;;21.01;100.00
62418;BME280;48456;54.242;10.280;2023-06-10T09:40:00;101896.75;;;21.03;100.00
62418;BME280;48456;54.242;10.280;2023-06-10T09:42:27;101890.31;;;20.77;100.00
62418;BME280;48456;54.242;10.280;2023-06-10T09:44:58;101893.25;;;21.00;100.00
62418;BME280;48456;54.242;10.280;2023-06-10T09:47:24;101888.28;;;20.86;100.00
62418;BME280;48456;54.242;10.280;2023-06-10T09:49:52;101879.72;;;21.03;100.00
62418;BME280;48456;54.242;10.280;2023-06-10T09:52:30;101877.69;;;21.10;100.00
62418;BME280;48456;54.242;10.280;2023-06-10T09:55:00;101887.59;;;21.38;100.00
62418;BME280;48456;54.242;10.280;2023-06-10T09:57:30;101885.44;;;21.49;100.00
62418;BME280;48456;54.242;10.280;2023-06-10T09:59:58;101885.44;;;21.21;100.00
62418;BME280;48456;54.242;10.280;2023-06-10T10:02:25;101889.91;;;21.49;100.00
62418;BME280;48456;54.242;10.280;2023-06-10T10:04:51;101877.34;;;21.49;100.00
62418;BME280;48456;54.242;10.280;2023-06-10T10:07:18;101879.16;;;21.49;100.00
62418;BME280;48456;54.242;10.280;2023-06-10T10:09:44;101884.59;;;21.47;100.00
62418;BME280;48456;54.242;10.280;2023-06-10T10:12:12;101897.22;;;21.74;100.00
62418;BME280;48456;54.242;10.280;2023-06-10T10:14:39;101889.50;;;21.61;100.00
62418;BME280;48456;54.242;10.280;2023-06-10T10:17:09;101882.38;;;21.87;100.00
62418;BME280;48456;54.242;10.280;2023-06-10T10:19:40;101885.59;;;21.70;100.00
62418;BME280;48456;54.242;10.280;2023-06-10T10:22:14;101889.59;;;22.12;100.00
62418;BME280;48456;54.242;10.280;2023-06-10T10:24:42;101893.66;;;21.99;100.00
62418;BME280;48456;54.242;10.280;2023-06-10T10:27:11;101875.44;;;21.80;100.00
62418;BME280;48456;54.242;10.280;2023-06-10T10:29:40;101890.28;;;22.43;100.00
62418;BME280;48456;54.242;10.280;2023-06-10T10:32:08;101890.25;;;23.15;100.00
62418;BME280;48456;54.242;10.280;2023-06-10T10:35:01;101885.94;;;24.19;100.00
62418;BME280;48456;54.242;10.280;2023-06-10T10:37:31;101882.91;;;25.06;100.00
62418;BME280;48456;54.242;10.280;2023-06-10T10:39:57;101880.53;;;25.54;100.00
62418;BME280;48456;54.242;10.280;2023-06-10T10:42:24;101884.44;;;25.48;100.00
62418;BME280;48456;54.242;10.280;2023-06-10T10:44:51;101881.91;;;25.98;100.00
62418;BME280;48456;54.242;10.280;2023-06-10T10:47:20;101886.06;;;26.05;100.00
62418;BME280;48456;54.242;10.280;2023-06-10T10:49:48;101884.41;;;25.67;100.00
62418;BME280;48456;54.242;10.280;2023-06-10T10:52:15;101888.84;;;25.14;100.00
62418;BME280;48456;54.242;10.280;2023-06-10T10:54:45;101891.09;;;25.23;100.00
62418;BME280;48456;54.242;10.280;2023-06-10T11:04:57;101893.75;;;26.49;100.00
62418;BME280;48456;54.242;10.280;2023-06-10T11:07:26;101886.53;;;26.81;100.00
62418;BME280;48456;54.242;10.280;2023-06-10T11:09:59;101894.50;;;26.34;100.00
62418;BME280;48456;54.242;10.280;2023-06-10T11:15:13;101883.13;;;27.42;100.00
62418;BME280;48456;54.242;10.280;2023-06-10T11:23:47;101886.75;;;27.88;100.00
62418;BME280;48456;54.242;10.280;2023-06-10T11:28:37;101889.63;;;28.01;100.00
62418;BME280;48456;54.242;10.280;2023-06-10T11:31:04;101884.97;;;27.09;100.00
62418;BME280;48456;54.242;10.280;2023-06-10T11:33:30;101889.06;;;27.80;100.00
62418;BME280;48456;54.242;10.280;2023-06-10T11:35:57;101889.59;;;27.40;100.00
62418;BME280;48456;54.242;10.280;2023-06-10T11:38:25;101882.19;;;27.58;100.00
62418;BME280;48456;54.242;10.280;2023-06-10T11:40:52;101881.13;;;27.76;100.00
62418;BME280;48456;54.242;10.280;2023-06-10T11:43:19;101877.59;;;27.44;100.00
62418;BME280;48456;54.242;10.280;2023-06-10T11:45:45;101884.25;;;27.38;100.00
62418;BME280;48456;54.242;10.280;2023-06-10T11:48:12;101876.53;;;27.46;100.00
62418;BME280;48456;54.242;10.280;2023-06-10T11:50:39;101873.22;;;27.72;100.00
62418;BME280;48456;54.242;10.280;2023-06-10T11:53:08;101876.78;;;27.88;100.00
62418;BME280;48456;54.242;10.280;2023-06-10T11:55:41;101876.25;;;28.41;100.00
62418;BME280;48456;54.242;10.280;2023-06-10T12:00:47;101870.84;;;27.96;100.00
62418;BME280;48456;54.242;10.280;2023-06-10T12:03:14;101868.63;;;28.03;100.00
62418;BME280;48456;54.242;10.280;2023-06-10T12:06:00;101869.16;;;28.39;100.00
62418;BME280;48456;54.242;10.280;2023-06-10T12:08:27;101881.63;;;28.28;100.00
62418;BME280;48456;54.242;10.280;2023-06-10T12:10:54;101871.06;;;28.22;100.00
62418;BME280;48456;54.242;10.280;2023-06-10T12:13:21;101870.00;;;27.65;100.00
62418;BME280;48456;54.242;10.280;2023-06-10T12:15:47;101876.03;;;27.40;100.00
62418;BME280;48456;54.242;10.280;2023-06-10T12:18:17;101884.91;;;27.74;100.00
62418;BME280;48456;54.242;10.280;2023-06-10T12:20:44;101879.47;;;27.58;100.00
62418;BME280;48456;54.242;10.280;2023-06-10T12:23:11;101882.19;;;27.58;100.00
62418;BME280;48456;54.242;10.280;2023-06-10T12:25:38;101883.13;;;28.18;100.00
62418;BME280;48456;54.242;10.280;2023-06-10T12:28:06;101879.84;;;28.42;100.00
62418;BME280;48456;54.242;10.280;2023-06-10T12:30:36;101888.97;;;28.70;100.00
62418;BME280;48456;54.242;10.280;2023-06-10T12:33:03;101881.63;;;29.14;100.00
62418;BME280;48456;54.242;10.280;2023-06-10T12:35:29;101884.56;;;29.24;100.00
62418;BME280;48456;54.242;10.280;2023-06-10T12:40:33;101881.03;;;29.64;100.00
62418;BME280;48456;54.242;10.280;2023-06-10T12:43:00;101881.50;;;29.16;100.00
62418;BME280;48456;54.242;10.280;2023-06-10T12:48:03;101869.72;;;29.83;100.00
62418;BME280;48456;54.242;10.280;2023-06-10T12:50:31;101870.91;;;29.39;100.00
62418;BME280;48456;54.242;10.280;2023-06-10T12:52:58;101877.34;;;29.65;100.00
62418;BME280;48456;54.242;10.280;2023-06-10T12:55:25;101869.72;;;29.43;100.00
62418;BME280;48456;54.242;10.280;2023-06-10T12:57:52;101864.06;;;29.46;100.00
62418;BME280;48456;54.242;10.280;2023-06-10T13:00:19;101863.84;;;29.49;100.00
62418;BME280;48456;54.242;10.280;2023-06-10T13:02:45;101868.03;;;29.00;100.00
62418;BME280;48456;54.242;10.280;2023-06-10T13:05:12;101861.50;;;29.30;100.00